sensor_id;sensor_type;location;lat;lon;timestamp;P1;durP1;ratioP1;P2;durP2;ratioP2
21814;SDS011;11069;48.988;8.450;2022-09-12T00:01:01;11.52;;;9.27;;
21814;SDS011;11069;48.988;8.450;2022-09-12T00:03:35;10.82;;;9.82;;
21814;SDS011;11069;48.988;8.450;2022-09-12T00:06:09;10.80;;;9.70;;
21814;SDS011;11069;48.988;8.450;2022-09-12T00:08:38;10.38;;;9.25;;
21814;SDS011;11069;48.988;8.450;2022-09-12T00:11:06;10.10;;;9.20;;
21814;SDS011;11069;48.988;8.450;2022-09-12T00:13:32;10.25;;;9.23;;
21814;SDS011;11069;48.988;8.450;2022-09-12T00:15:58;9.60;;;8.77;;
21814;SDS011;11069;48.988;8.450;2022-09-12T00:18:24;9.20;;;8.40;;
21814;SDS011;11069;48.988;8.450;2022-09-12T00:20:49;10.63;;;9.73;;
21814;SDS011;11069;48.988;8.450;2022-09-12T00:23:15;11.63;;;9.85;;
21814;SDS011;11069;48.988;8.450;2022-09-12T00:25:44;10.02;;;9.23;;
21814;SDS011;11069;48.988;8.450;2022-09-12T00:28:11;10.82;;;9.52;;
21814;SDS011;11069;48.988;8.450;2022-09-12T00:30:39;10.40;;;8.63;;
21814;SDS011;11069;48.988;8.450;2022-09-12T00:33:06;10.13;;;9.13;;
21814;SDS011;11069;48.988;8.450;2022-09-12T00:35:32;9.30;;;8.52;;
21814;SDS011;11069;48.988;8.450;2022-09-12T00:37:57;11.02;;;9.52;;
21814;SDS011;11069;48.988;8.450;2022-09-12T00:40:23;12.60;;;9.68;;
21814;SDS011;11069;48.988;8.450;2022-09-12T00:42:48;11.43;;;9.20;;
21814;SDS011;11069;48.988;8.450;2022-09-12T00:45:18;10.88;;;9.85;;
21814;SDS011;11069;48.988;8.450;2022-09-12T00:47:48;10.93;;;9.52;;
21814;SDS011;11069;48.988;8.450;2022-09-12T00:50:14;10.82;;;9.82;;
21814;SDS011;11069;48.988;8.450;2022-09-12T00:52:45;10.52;;;9.63;;
21814;SDS011;11069;48.988;8.450;2022-09-12T00:55:23;11.40;;;10.30;;
21814;SDS011;11069;48.988;8.450;2022-09-12T00:57:59;10.93;;;9.95;;
21814;SDS011;11069;48.988;8.450;2022-09-12T01:00:31;11.10;;;9.90;;
21814;SDS011;11069;48.988;8.450;2022-09-12T01:02:59;12.02;;;10.77;;
21814;SDS011;11069;48.988;8.450;2022-09-12T01:05:30;12.20;;;11.00;;
21814;SDS011;11069;48.988;8.450;2022-09-12T01:07:59;12.45;;;11.18;;
21814;SDS011;11069;48.988;8.450;2022-09-12T01:10:29;11.65;;;10.60;;
21814;SDS011;11069;48.988;8.450;2022-09-12T01:12:55;11.15;;;10.13;;
21814;SDS011;11069;48.988;8.450;2022-09-12T01:15:21;9.98;;;9.07;;
21814;SDS011;11069;48.988;8.450;2022-09-12T01:17:50;10.32;;;9.30;;
21814;SDS011;11069;48.988;8.450;2022-09-12T01:23:31;11.45;;;10.35;;
21814;SDS011;11069;48.988;8.450;2022-09-12T01:29:23;10.32;;;9.43;;
21814;SDS011;11069;48.988;8.450;2022-09-12T01:32:16;10.70;;;9.70;;
21814;SDS011;11069;48.988;8.450;2022-09-12T01:37:51;10.50;;;9.50;;
21814;SDS011;11069;48.988;8.450;2022-09-12T01:40:27;11.60;;;10.07;;
21814;SDS011;11069;48.988;8.450;2022-09-12T01:43:09;11.00;;;9.98;;
21814;SDS011;11069;48.988;8.450;2022-09-12T01:46:02;10.35;;;9.32;;
21814;SDS011;11069;48.988;8.450;2022-09-12T01:51:22;10.60;;;9.50;;
21814;SDS011;11069;48.988;8.450;2022-09-12T01:53:53;10.15;;;9.25;;
21814;SDS011;11069;48.988;8.450;2022-09-12T01:56:28;10.18;;;9.13;;
21814;SDS011;11069;48.988;8.450;2022-09-12T02:01:36;10.05;;;9.05;;
21814;SDS011;11069;48.988;8.450;2022-09-12T02:04:19;10.50;;;9.50;;
21814;SDS011;11069;48.988;8.450;2022-09-12T02:07:00;10.18;;;9.27;;
21814;SDS011;11069;48.988;8.450;2022-09-12T02:09:43;10.70;;;9.25;;
21814;SDS011;11069;48.988;8.450;2022-09-12T02:12:19;10.70;;;9.70;;
21814;SDS011;11069;48.988;8.450;2022-09-12T02:14:52;11.00;;;9.48;;
21814;SDS011;11069;48.988;8.450;2022-09-12T02:17:23;12.98;;;10.60;;
21814;SDS011;11069;48.988;8.450;2022-09-12T02:22:51;11.27;;;10.18;;
21814;SDS011;11069;48.988;8.450;2022-09-12T02:25:20;10.68;;;9.68;;
21814;SDS011;11069;48.988;8.450;2022-09-12T02:27:48;12.40;;;11.30;;
21814;SDS011;11069;48.988;8.450;2022-09-12T02:30:17;11.15;;;10.25;;
21814;SDS011;11069;48.988;8.450;2022-09-12T02:38:40;12.60;;;9.90;;
21814;SDS011;11069;48.988;8.450;2022-09-12T02:41:08;10.93;;;9.98;;
21814;SDS011;11069;48.988;8.450;2022-09-12T02:43:34;10.15;;;9.25;;
21814;SDS011;11069;48.988;8.450;2022-09-12T02:46:02;11.90;;;10.50;;
21814;SDS011;11069;48.988;8.450;2022-09-12T02:48:30;10.88;;;9.45;;
21814;SDS011;11069;48.988;8.450;2022-09-12T02:51:00;10.88;;;9.88;;
21814;SDS011;11069;48.988;8.450;2022-09-12T02:53:26;10.27;;;9.27;;
21814;SDS011;11069;48.988;8.450;2022-09-12T02:55:52;9.95;;;9.05;;
21814;SDS011;11069;48.988;8.450;2022-09-12T02:58:19;10.77;;;9.07;;
21814;SDS011;11069;48.988;8.450;2022-09-12T03:00:59;11.13;;;8.82;;
21814;SDS011;11069;48.988;8.450;2022-09-12T03:03:43;9.68;;;8.52;;
21814;SDS011;11069;48.988;8.450;2022-09-12T03:23:17;11.50;;;9.50;;
21814;SDS011;11069;48.988;8.450;2022-09-12T03:25:55;10.32;;;8.90;;
21814;SDS011;11069;48.988;8.450;2022-09-12T03:28:24;9.73;;;8.77;;
21814;SDS011;11069;48.988;8.450;2022-09-12T03:30:50;10.10;;;9.20;;
21814;SDS011;11069;48.988;8.450;2022-09-12T03:33:19;10.57;;;9.35;;
21814;SDS011;11069;48.988;8.450;2022-09-12T03:35:46;10.52;;;9.43;;
21814;SDS011;11069;48.988;8.450;2022-09-12T03:38:13;12.40;;;10.63;;
21814;SDS011;11069;48.988;8.450;2022-09-12T03:40:39;12.90;;;10.68;;
21814;SDS011;11069;48.988;8.450;2022-09-12T03:43:05;12.35;;;10.82;;
21814;SDS011;11069;48.988;8.450;2022-09-12T03:45:32;10.93;;;9.90;;
21814;SDS011;11069;48.988;8.450;2022-09-12T03:47:58;10.20;;;9.35;;
21814;SDS011;11069;48.988;8.450;2022-09-12T03:50:24;11.45;;;10.35;;
21814;SDS011;11069;48.988;8.450;2022-09-12T03:52:49;11.57;;;10.15;;
21814;SDS011;11069;48.988;8.450;2022-09-12T03:55:15;12.55;;;10.30;;
21814;SDS011;11069;48.988;8.450;2022-09-12T03:57:41;11.10;;;10.20;;
21814;SDS011;11069;48.988;8.450;2022-09-12T04:00:08;10.85;;;9.75;;
21814;SDS011;11069;48.988;8.450;2022-09-12T04:02:34;13.55;;;9.98;;
21814;SDS011;11069;48.988;8.450;2022-09-12T04:05:00;10.63;;;9.55;;
21814;SDS011;11069;48.988;8.450;2022-09-12T04:07:25;12.40;;;9.93;;
21814;SDS011;11069;48.988;8.450;2022-09-12T04:09:51;13.02;;;9.27;;
21814;SDS011;11069;48.988;8.450;2022-09-12T04:12:17;14.40;;;9.80;;
21814;SDS011;11069;48.988;8.450;2022-09-12T04:14:44;9.77;;;8.95;;
21814;SDS011;11069;48.988;8.450;2022-09-12T04:17:09;9.65;;;8.73;;
21814;SDS011;11069;48.988;8.450;2022-09-12T04:19:35;10.23;;;9.15;;
21814;SDS011;11069;48.988;8.450;2022-09-12T04:22:01;10.32;;;9.30;;
21814;SDS011;11069;48.988;8.450;2022-09-12T04:24:27;11.95;;;10.82;;
21814;SDS011;11069;48.988;8.450;2022-09-12T04:26:53;10.65;;;9.57;;
21814;SDS011;11069;48.988;8.450;2022-09-12T04:29:18;10.70;;;9.32;;
21814;SDS011;11069;48.988;8.450;2022-09-12T04:31:44;11.35;;;10.25;;
21814;SDS011;11069;48.988;8.450;2022-09-12T04:34:10;11.02;;;10.02;;
21814;SDS011;11069;48.988;8.450;2022-09-12T04:36:36;11.75;;;10.65;;
21814;SDS011;11069;48.988;8.450;2022-09-12T04:39:02;12.20;;;10.68;;
21814;SDS011;11069;48.988;8.450;2022-09-12T04:41:33;13.55;;;10.43;;
21814;SDS011;11069;48.988;8.450;2022-09-12T04:44:01;11.63;;;10.63;;
21814;SDS011;11069;48.988;8.450;2022-09-12T04:46:34;11.85;;;10.77;;
21814;SDS011;11069;48.988;8.450;2022-09-12T04:49:02;10.98;;;10.07;;
21814;SDS011;11069;48.988;8.450;2022-09-12T04:51:29;11.30;;;10.30;;
21814;SDS011;11069;48.988;8.450;2022-09-12T04:54:07;11.82;;;10.57;;
21814;SDS011;11069;48.988;8.450;2022-09-12T04:56:36;11.90;;;10.68;;
21814;SDS011;11069;48.988;8.450;2022-09-12T04:59:03;11.25;;;10.15;;
21814;SDS011;11069;48.988;8.450;2022-09-12T05:01:29;12.32;;;10.38;;
21814;SDS011;11069;48.988;8.450;2022-09-12T05:03:55;11.02;;;10.05;;
21814;SDS011;11069;48.988;8.450;2022-09-12T05:06:26;12.45;;;10.00;;
21814;SDS011;11069;48.988;8.450;2022-09-12T05:08:54;11.85;;;10.73;;
21814;SDS011;11069;48.988;8.450;2022-09-12T05:11:23;11.05;;;10.05;;
21814;SDS011;11069;48.988;8.450;2022-09-12T05:13:50;11.70;;;10.50;;
21814;SDS011;11069;48.988;8.450;2022-09-12T05:16:17;11.32;;;10.25;;
21814;SDS011;11069;48.988;8.450;2022-09-12T05:18:44;11.52;;;10.48;;
21814;SDS011;11069;48.988;8.450;2022-09-12T05:21:11;11.40;;;10.25;;
21814;SDS011;11069;48.988;8.450;2022-09-12T05:23:38;11.23;;;10.23;;
21814;SDS011;11069;48.988;8.450;2022-09-12T05:26:05;10.70;;;9.65;;
21814;SDS011;11069;48.988;8.450;2022-09-12T05:28:35;11.02;;;10.05;;
21814;SDS011;11069;48.988;8.450;2022-09-12T05:31:03;10.47;;;9.47;;
21814;SDS011;11069;48.988;8.450;2022-09-12T05:33:32;11.65;;;9.52;;
21814;SDS011;11069;48.988;8.450;2022-09-12T05:35:59;10.82;;;9.82;;
21814;SDS011;11069;48.988;8.450;2022-09-12T05:38:26;10.40;;;9.40;;
21814;SDS011;11069;48.988;8.450;2022-09-12T05:40:53;10.27;;;9.20;;
21814;SDS011;11069;48.988;8.450;2022-09-12T05:43:27;10.25;;;9.20;;
21814;SDS011;11069;48.988;8.450;2022-09-12T05:45:59;10.77;;;9.68;;
21814;SDS011;11069;48.988;8.450;2022-09-12T05:48:26;11.63;;;10.43;;
21814;SDS011;11069;48.988;8.450;2022-09-12T05:50:52;10.82;;;9.73;;
21814;SDS011;11069;48.988;8.450;2022-09-12T05:53:28;11.93;;;10.50;;
21814;SDS011;11069;48.988;8.450;2022-09-12T05:56:04;11.00;;;10.00;;
21814;SDS011;11069;48.988;8.450;2022-09-12T05:58:35;13.50;;;10.38;;
21814;SDS011;11069;48.988;8.450;2022-09-12T06:01:05;14.48;;;10.77;;
21814;SDS011;11069;48.988;8.450;2022-09-12T06:03:33;15.82;;;10.70;;
21814;SDS011;11069;48.988;8.450;2022-09-12T06:06:03;11.63;;;10.50;;
21814;SDS011;11069;48.988;8.450;2022-09-12T06:08:33;11.02;;;10.00;;
21814;SDS011;11069;48.988;8.450;2022-09-12T06:11:03;12.93;;;10.40;;
21814;SDS011;11069;48.988;8.450;2022-09-12T06:13:30;11.10;;;9.65;;
21814;SDS011;11069;48.988;8.450;2022-09-12T06:16:07;10.00;;;9.00;;
21814;SDS011;11069;48.988;8.450;2022-09-12T06:18:37;12.47;;;9.07;;
21814;SDS011;11069;48.988;8.450;2022-09-12T06:21:04;9.40;;;8.70;;
21814;SDS011;11069;48.988;8.450;2022-09-12T06:23:31;9.85;;;8.95;;
21814;SDS011;11069;48.988;8.450;2022-09-12T06:25:57;9.75;;;8.75;;
21814;SDS011;11069;48.988;8.450;2022-09-12T06:28:23;8.90;;;8.10;;
21814;SDS011;11069;48.988;8.450;2022-09-12T06:30:50;7.93;;;7.28;;
21814;SDS011;11069;48.988;8.450;2022-09-12T06:33:15;8.05;;;7.30;;
21814;SDS011;11069;48.988;8.450;2022-09-12T06:35:41;7.80;;;7.00;;
21814;SDS011;11069;48.988;8.450;2022-09-12T06:38:06;12.25;;;7.47;;
21814;SDS011;11069;48.988;8.450;2022-09-12T06:40:33;7.63;;;6.85;;
21814;SDS011;11069;48.988;8.450;2022-09-12T06:42:59;8.43;;;7.60;;
21814;SDS011;11069;48.988;8.450;2022-09-12T06:45:25;7.85;;;7.03;;
21814;SDS011;11069;48.988;8.450;2022-09-12T06:47:51;9.98;;;7.40;;
21814;SDS011;11069;48.988;8.450;2022-09-12T06:50:16;8.00;;;7.20;;
21814;SDS011;11069;48.988;8.450;2022-09-12T06:52:42;6.80;;;6.18;;
21814;SDS011;11069;48.988;8.450;2022-09-12T06:55:08;7.97;;;7.28;;
21814;SDS011;11069;48.988;8.450;2022-09-12T06:57:34;7.25;;;6.22;;
21814;SDS011;11069;48.988;8.450;2022-09-12T07:00:03;6.88;;;6.10;;
21814;SDS011;11069;48.988;8.450;2022-09-12T07:02:29;7.22;;;6.00;;
21814;SDS011;11069;48.988;8.450;2022-09-12T07:04:55;8.50;;;6.10;;
21814;SDS011;11069;48.988;8.450;2022-09-12T07:07:21;10.32;;;5.95;;
21814;SDS011;11069;48.988;8.450;2022-09-12T07:09:46;8.52;;;5.93;;
21814;SDS011;11069;48.988;8.450;2022-09-12T07:12:13;7.20;;;5.70;;
21814;SDS011;11069;48.988;8.450;2022-09-12T07:14:39;8.50;;;5.65;;
21814;SDS011;11069;48.988;8.450;2022-09-12T07:17:04;6.28;;;5.68;;
21814;SDS011;11069;48.988;8.450;2022-09-12T07:19:30;8.05;;;5.63;;
21814;SDS011;11069;48.988;8.450;2022-09-12T07:21:56;9.02;;;5.40;;
21814;SDS011;11069;48.988;8.450;2022-09-12T07:24:22;5.53;;;5.03;;
21814;SDS011;11069;48.988;8.450;2022-09-12T07:26:48;7.00;;;5.45;;
21814;SDS011;11069;48.988;8.450;2022-09-12T07:29:14;7.05;;;5.43;;
21814;SDS011;11069;48.988;8.450;2022-09-12T07:31:40;6.10;;;5.50;;
21814;SDS011;11069;48.988;8.450;2022-09-12T07:34:06;6.50;;;5.82;;
21814;SDS011;11069;48.988;8.450;2022-09-12T07:36:32;5.50;;;4.90;;
21814;SDS011;11069;48.988;8.450;2022-09-12T07:38:58;6.00;;;5.35;;
21814;SDS011;11069;48.988;8.450;2022-09-12T07:41:25;5.70;;;5.20;;
21814;SDS011;11069;48.988;8.450;2022-09-12T07:43:56;6.85;;;5.25;;
21814;SDS011;11069;48.988;8.450;2022-09-12T07:46:23;9.82;;;4.30;;
21814;SDS011;11069;48.988;8.450;2022-09-12T07:48:54;5.40;;;4.90;;
21814;SDS011;11069;48.988;8.450;2022-09-12T07:51:21;6.03;;;4.68;;
21814;SDS011;11069;48.988;8.450;2022-09-12T07:53:48;8.07;;;5.05;;
21814;SDS011;11069;48.988;8.450;2022-09-12T07:56:15;5.80;;;5.00;;
21814;SDS011;11069;48.988;8.450;2022-09-12T07:58:41;5.90;;;5.40;;
21814;SDS011;11069;48.988;8.450;2022-09-12T08:01:09;8.25;;;5.80;;
21814;SDS011;11069;48.988;8.450;2022-09-12T08:03:39;14.05;;;5.80;;
21814;SDS011;11069;48.988;8.450;2022-09-12T08:06:10;6.07;;;5.45;;
21814;SDS011;11069;48.988;8.450;2022-09-12T08:08:40;8.00;;;6.45;;
21814;SDS011;11069;48.988;8.450;2022-09-12T08:11:08;7.00;;;5.80;;
21814;SDS011;11069;48.988;8.450;2022-09-12T08:13:35;6.15;;;4.85;;
21814;SDS011;11069;48.988;8.450;2022-09-12T08:16:03;5.63;;;4.75;;
21814;SDS011;11069;48.988;8.450;2022-09-12T08:18:31;9.82;;;5.78;;
21814;SDS011;11069;48.988;8.450;2022-09-12T08:23:22;6.38;;;5.10;;
21814;SDS011;11069;48.988;8.450;2022-09-12T08:25:49;7.63;;;5.75;;
21814;SDS011;11069;48.988;8.450;2022-09-12T08:28:15;7.32;;;5.10;;
21814;SDS011;11069;48.988;8.450;2022-09-12T08:30:40;7.65;;;5.53;;
21814;SDS011;11069;48.988;8.450;2022-09-12T08:33:06;5.80;;;4.82;;
21814;SDS011;11069;48.988;8.450;2022-09-12T08:35:32;7.47;;;4.93;;
21814;SDS011;11069;48.988;8.450;2022-09-12T08:37:58;9.10;;;4.95;;
21814;SDS011;11069;48.988;8.450;2022-09-12T08:40:23;4.95;;;4.43;;
21814;SDS011;11069;48.988;8.450;2022-09-12T08:43:01;5.32;;;4.80;;
21814;SDS011;11069;48.988;8.450;2022-09-12T08:45:42;8.00;;;5.00;;
21814;SDS011;11069;48.988;8.450;2022-09-12T08:48:13;5.53;;;4.00;;
21814;SDS011;11069;48.988;8.450;2022-09-12T08:50:39;7.18;;;4.85;;
21814;SDS011;11069;48.988;8.450;2022-09-12T08:53:12;5.70;;;4.40;;
21814;SDS011;11069;48.988;8.450;2022-09-12T08:55:41;4.97;;;4.47;;
21814;SDS011;11069;48.988;8.450;2022-09-12T08:58:21;7.15;;;4.25;;
21814;SDS011;11069;48.988;8.450;2022-09-12T09:03:49;5.65;;;4.80;;
21814;SDS011;11069;48.988;8.450;2022-09-12T09:06:36;6.50;;;5.10;;
21814;SDS011;11069;48.988;8.450;2022-09-12T09:12:03;9.20;;;4.32;;
21814;SDS011;11069;48.988;8.450;2022-09-12T09:17:22;6.05;;;4.40;;
21814;SDS011;11069;48.988;8.450;2022-09-12T09:20:12;4.60;;;4.30;;
21814;SDS011;11069;48.988;8.450;2022-09-12T09:22:57;7.60;;;4.70;;
21814;SDS011;11069;48.988;8.450;2022-09-12T09:25:43;9.00;;;4.97;;
21814;SDS011;11069;48.988;8.450;2022-09-12T09:28:22;5.25;;;4.30;;
21814;SDS011;11069;48.988;8.450;2022-09-12T09:31:19;5.90;;;4.60;;
21814;SDS011;11069;48.988;8.450;2022-09-12T09:33:51;4.68;;;4.15;;
21814;SDS011;11069;48.988;8.450;2022-09-12T09:39:20;4.68;;;4.28;;
21814;SDS011;11069;48.988;8.450;2022-09-12T09:44:48;4.68;;;4.07;;
21814;SDS011;11069;48.988;8.450;2022-09-12T09:47:17;6.38;;;3.70;;
21814;SDS011;11069;48.988;8.450;2022-09-12T09:49:43;3.70;;;3.40;;
21814;SDS011;11069;48.988;8.450;2022-09-12T09:52:10;3.70;;;3.38;;
21814;SDS011;11069;48.988;8.450;2022-09-12T09:54:46;4.55;;;3.50;;
21814;SDS011;11069;48.988;8.450;2022-09-12T10:05:33;7.43;;;4.40;;
21814;SDS011;11069;48.988;8.450;2022-09-12T10:08:08;3.75;;;3.45;;
21814;SDS011;11069;48.988;8.450;2022-09-12T10:10:34;3.78;;;3.45;;
21814;SDS011;11069;48.988;8.450;2022-09-12T10:13:17;4.40;;;3.55;;
21814;SDS011;11069;48.988;8.450;2022-09-12T10:16:00;8.98;;;5.40;;
21814;SDS011;11069;48.988;8.450;2022-09-12T10:18:32;5.57;;;3.90;;
21814;SDS011;11069;48.988;8.450;2022-09-12T10:20:59;4.28;;;3.88;;
21814;SDS011;11069;48.988;8.450;2022-09-12T10:23:33;6.32;;;3.75;;
21814;SDS011;11069;48.988;8.450;2022-09-12T10:26:03;4.82;;;3.67;;
21814;SDS011;11069;48.988;8.450;2022-09-12T10:28:37;8.70;;;3.90;;
21814;SDS011;11069;48.988;8.450;2022-09-12T10:31:07;3.97;;;3.47;;
21814;SDS011;11069;48.988;8.450;2022-09-12T10:33:46;3.83;;;3.47;;
21814;SDS011;11069;48.988;8.450;2022-09-12T10:36:17;4.82;;;3.72;;
21814;SDS011;11069;48.988;8.450;2022-09-12T10:38:50;4.60;;;3.78;;
21814;SDS011;11069;48.988;8.450;2022-09-12T10:41:19;4.07;;;3.78;;
21814;SDS011;11069;48.988;8.450;2022-09-12T10:43:46;5.00;;;3.75;;
21814;SDS011;11069;48.988;8.450;2022-09-12T10:46:19;5.57;;;3.90;;
21814;SDS011;11069;48.988;8.450;2022-09-12T10:48:48;5.43;;;3.60;;
21814;SDS011;11069;48.988;8.450;2022-09-12T10:53:47;4.43;;;3.70;;
21814;SDS011;11069;48.988;8.450;2022-09-12T10:56:20;4.82;;;3.90;;
21814;SDS011;11069;48.988;8.450;2022-09-12T11:01:33;6.25;;;3.28;;
21814;SDS011;11069;48.988;8.450;2022-09-12T11:10:04;6.05;;;3.30;;
21814;SDS011;11069;48.988;8.450;2022-09-12T11:15:31;4.40;;;3.30;;
21814;SDS011;11069;48.988;8.450;2022-09-12T11:18:26;3.22;;;2.72;;
21814;SDS011;11069;48.988;8.450;2022-09-12T11:24:03;4.13;;;2.97;;
21814;SDS011;11069;48.988;8.450;2022-09-12T11:26:43;4.00;;;2.95;;
21814;SDS011;11069;48.988;8.450;2022-09-12T11:29:50;6.97;;;3.00;;
21814;SDS011;11069;48.988;8.450;2022-09-12T11:46:01;8.90;;;2.40;;
21814;SDS011;11069;48.988;8.450;2022-09-12T11:48:40;3.75;;;2.63;;
21814;SDS011;11069;48.988;8.450;2022-09-12T11:51:19;2.10;;;1.90;;
21814;SDS011;11069;48.988;8.450;2022-09-12T11:56:45;3.00;;;2.30;;
21814;SDS011;11069;48.988;8.450;2022-09-12T11:59:20;5.45;;;2.45;;
21814;SDS011;11069;48.988;8.450;2022-09-12T12:01:58;2.53;;;2.30;;
21814;SDS011;11069;48.988;8.450;2022-09-12T12:04:26;3.83;;;2.13;;
21814;SDS011;11069;48.988;8.450;2022-09-12T12:07:02;4.22;;;2.55;;
21814;SDS011;11069;48.988;8.450;2022-09-12T12:09:31;4.65;;;2.08;;
21814;SDS011;11069;48.988;8.450;2022-09-12T12:11:58;4.60;;;2.22;;
21814;SDS011;11069;48.988;8.450;2022-09-12T12:14:34;5.50;;;2.20;;
21814;SDS011;11069;48.988;8.450;2022-09-12T12:17:12;4.50;;;2.00;;
21814;SDS011;11069;48.988;8.450;2022-09-12T12:19:58;3.15;;;2.10;;
21814;SDS011;11069;48.988;8.450;2022-09-12T12:22:25;5.25;;;2.47;;
21814;SDS011;11069;48.988;8.450;2022-09-12T12:27:55;2.97;;;2.40;;
21814;SDS011;11069;48.988;8.450;2022-09-12T12:38:01;3.70;;;2.17;;
21814;SDS011;11069;48.988;8.450;2022-09-12T12:40:29;3.70;;;2.20;;
21814;SDS011;11069;48.988;8.450;2022-09-12T12:42:57;2.53;;;2.08;;
21814;SDS011;11069;48.988;8.450;2022-09-12T12:47:56;2.20;;;2.00;;
21814;SDS011;11069;48.988;8.450;2022-09-12T12:50:35;3.00;;;2.00;;
21814;SDS011;11069;48.988;8.450;2022-09-12T12:55:46;3.30;;;1.90;;
21814;SDS011;11069;48.988;8.450;2022-09-12T12:58:28;5.72;;;2.10;;
21814;SDS011;11069;48.988;8.450;2022-09-12T13:01:04;3.65;;;1.98;;
21814;SDS011;11069;48.988;8.450;2022-09-12T13:03:42;2.10;;;1.85;;
21814;SDS011;11069;48.988;8.450;2022-09-12T13:06:33;2.70;;;1.73;;
21814;SDS011;11069;48.988;8.450;2022-09-12T13:09:01;2.15;;;1.70;;
21814;SDS011;11069;48.988;8.450;2022-09-12T13:11:37;1.98;;;1.77;;
21814;SDS011;11069;48.988;8.450;2022-09-12T13:16:36;3.80;;;1.83;;
21814;SDS011;11069;48.988;8.450;2022-09-12T13:19:05;2.92;;;1.70;;
21814;SDS011;11069;48.988;8.450;2022-09-12T13:21:37;1.70;;;1.60;;
21814;SDS011;11069;48.988;8.450;2022-09-12T13:26:39;3.75;;;1.70;;
21814;SDS011;11069;48.988;8.450;2022-09-12T13:29:20;2.00;;;1.80;;
21814;SDS011;11069;48.988;8.450;2022-09-12T13:32:07;2.13;;;1.40;;
21814;SDS011;11069;48.988;8.450;2022-09-12T13:34:33;1.65;;;1.52;;
21814;SDS011;11069;48.988;8.450;2022-09-12T13:37:40;2.45;;;1.63;;
21814;SDS011;11069;48.988;8.450;2022-09-12T13:43:36;3.78;;;1.95;;
21814;SDS011;11069;48.988;8.450;2022-09-12T13:46:06;2.63;;;2.10;;
21814;SDS011;11069;48.988;8.450;2022-09-12T13:48:37;3.42;;;1.40;;
21814;SDS011;11069;48.988;8.450;2022-09-12T13:51:04;5.13;;;1.77;;
21814;SDS011;11069;48.988;8.450;2022-09-12T13:53:42;1.95;;;1.40;;
21814;SDS011;11069;48.988;8.450;2022-09-12T13:56:14;4.15;;;2.05;;
21814;SDS011;11069;48.988;8.450;2022-09-12T13:58:54;1.90;;;1.42;;
21814;SDS011;11069;48.988;8.450;2022-09-12T14:01:41;9.85;;;3.70;;
21814;SDS011;11069;48.988;8.450;2022-09-12T14:04:14;2.53;;;1.38;;
21814;SDS011;11069;48.988;8.450;2022-09-12T14:07:01;3.92;;;1.50;;
21814;SDS011;11069;48.988;8.450;2022-09-12T14:09:47;1.95;;;1.45;;
21814;SDS011;11069;48.988;8.450;2022-09-12T14:12:23;2.72;;;1.70;;
21814;SDS011;11069;48.988;8.450;2022-09-12T14:14:56;2.13;;;1.52;;
21814;SDS011;11069;48.988;8.450;2022-09-12T14:17:46;1.70;;;0.98;;
21814;SDS011;11069;48.988;8.450;2022-09-12T14:20:19;5.32;;;2.50;;
21814;SDS011;11069;48.988;8.450;2022-09-12T14:22:47;2.35;;;1.40;;
21814;SDS011;11069;48.988;8.450;2022-09-12T14:25:21;1.27;;;1.17;;
21814;SDS011;11069;48.988;8.450;2022-09-12T14:27:52;7.38;;;1.40;;
21814;SDS011;11069;48.988;8.450;2022-09-12T14:30:25;2.97;;;1.60;;
21814;SDS011;11069;48.988;8.450;2022-09-12T14:33:19;1.50;;;1.35;;
21814;SDS011;11069;48.988;8.450;2022-09-12T14:35:46;4.43;;;1.60;;
21814;SDS011;11069;48.988;8.450;2022-09-12T14:40:45;1.70;;;1.30;;
21814;SDS011;11069;48.988;8.450;2022-09-12T14:43:46;2.28;;;1.30;;
21814;SDS011;11069;48.988;8.450;2022-09-12T14:46:18;4.97;;;1.63;;
21814;SDS011;11069;48.988;8.450;2022-09-12T14:48:56;1.77;;;1.52;;
21814;SDS011;11069;48.988;8.450;2022-09-12T14:51:31;5.35;;;2.38;;
21814;SDS011;11069;48.988;8.450;2022-09-12T14:54:02;1.83;;;1.30;;
21814;SDS011;11069;48.988;8.450;2022-09-12T14:56:41;2.60;;;1.30;;
21814;SDS011;11069;48.988;8.450;2022-09-12T15:04:51;13.63;;;3.17;;
21814;SDS011;11069;48.988;8.450;2022-09-12T15:09:48;2.08;;;1.20;;
21814;SDS011;11069;48.988;8.450;2022-09-12T15:12:13;1.48;;;1.35;;
21814;SDS011;11069;48.988;8.450;2022-09-12T15:14:39;1.63;;;1.52;;
21814;SDS011;11069;48.988;8.450;2022-09-12T15:17:05;2.78;;;1.40;;
21814;SDS011;11069;48.988;8.450;2022-09-12T15:19:30;2.97;;;1.50;;
21814;SDS011;11069;48.988;8.450;2022-09-12T15:21:56;3.40;;;1.75;;
21814;SDS011;11069;48.988;8.450;2022-09-12T15:24:22;1.80;;;1.50;;
21814;SDS011;11069;48.988;8.450;2022-09-12T15:26:47;2.30;;;1.20;;
21814;SDS011;11069;48.988;8.450;2022-09-12T15:29:13;1.23;;;1.05;;
21814;SDS011;11069;48.988;8.450;2022-09-12T15:31:39;1.40;;;1.30;;
21814;SDS011;11069;48.988;8.450;2022-09-12T15:34:04;2.05;;;1.33;;
21814;SDS011;11069;48.988;8.450;2022-09-12T15:36:30;1.55;;;1.33;;
21814;SDS011;11069;48.988;8.450;2022-09-12T15:38:56;7.07;;;1.48;;
21814;SDS011;11069;48.988;8.450;2022-09-12T15:41:27;1.88;;;1.40;;
21814;SDS011;11069;48.988;8.450;2022-09-12T15:43:56;5.00;;;1.52;;
21814;SDS011;11069;48.988;8.450;2022-09-12T15:46:22;2.92;;;1.55;;
21814;SDS011;11069;48.988;8.450;2022-09-12T15:48:48;2.25;;;1.50;;
21814;SDS011;11069;48.988;8.450;2022-09-12T15:51:15;2.40;;;1.40;;
21814;SDS011;11069;48.988;8.450;2022-09-12T15:53:42;2.53;;;1.55;;
21814;SDS011;11069;48.988;8.450;2022-09-12T15:56:08;2.72;;;1.42;;
21814;SDS011;11069;48.988;8.450;2022-09-12T15:58:34;3.13;;;1.42;;
21814;SDS011;11069;48.988;8.450;2022-09-12T16:00:59;1.83;;;1.50;;
21814;SDS011;11069;48.988;8.450;2022-09-12T16:03:26;3.08;;;1.52;;
21814;SDS011;11069;48.988;8.450;2022-09-12T16:05:57;3.63;;;1.45;;
21814;SDS011;11069;48.988;8.450;2022-09-12T16:08:27;2.22;;;1.60;;
21814;SDS011;11069;48.988;8.450;2022-09-12T16:10:55;4.75;;;2.00;;
21814;SDS011;11069;48.988;8.450;2022-09-12T16:13:23;1.95;;;1.50;;
21814;SDS011;11069;48.988;8.450;2022-09-12T16:15:49;2.00;;;1.50;;
21814;SDS011;11069;48.988;8.450;2022-09-12T16:18:15;3.63;;;2.25;;
21814;SDS011;11069;48.988;8.450;2022-09-12T16:20:41;2.42;;;1.77;;
21814;SDS011;11069;48.988;8.450;2022-09-12T16:23:10;2.65;;;1.67;;
21814;SDS011;11069;48.988;8.450;2022-09-12T16:25:36;2.80;;;1.52;;
21814;SDS011;11069;48.988;8.450;2022-09-12T16:28:02;2.58;;;1.67;;
21814;SDS011;11069;48.988;8.450;2022-09-12T16:30:30;2.47;;;1.63;;
21814;SDS011;11069;48.988;8.450;2022-09-12T16:32:56;2.75;;;1.60;;
21814;SDS011;11069;48.988;8.450;2022-09-12T16:35:22;3.65;;;2.03;;
21814;SDS011;11069;48.988;8.450;2022-09-12T16:37:47;2.05;;;1.85;;
21814;SDS011;11069;48.988;8.450;2022-09-12T16:40:13;2.53;;;1.70;;
21814;SDS011;11069;48.988;8.450;2022-09-12T16:42:41;3.95;;;1.98;;
21814;SDS011;11069;48.988;8.450;2022-09-12T16:45:07;2.28;;;2.08;;
21814;SDS011;11069;48.988;8.450;2022-09-12T16:47:33;4.22;;;2.20;;
21814;SDS011;11069;48.988;8.450;2022-09-12T16:49:59;3.55;;;2.25;;
21814;SDS011;11069;48.988;8.450;2022-09-12T16:52:24;3.05;;;2.25;;
21814;SDS011;11069;48.988;8.450;2022-09-12T16:54:50;3.17;;;2.42;;
21814;SDS011;11069;48.988;8.450;2022-09-12T16:57:16;3.50;;;2.10;;
21814;SDS011;11069;48.988;8.450;2022-09-12T16:59:41;2.97;;;2.22;;
21814;SDS011;11069;48.988;8.450;2022-09-12T17:02:09;5.55;;;2.17;;
21814;SDS011;11069;48.988;8.450;2022-09-12T17:04:36;3.75;;;2.15;;
21814;SDS011;11069;48.988;8.450;2022-09-12T17:07:01;4.20;;;2.00;;
21814;SDS011;11069;48.988;8.450;2022-09-12T17:09:27;3.35;;;2.08;;
21814;SDS011;11069;48.988;8.450;2022-09-12T17:11:53;4.47;;;2.08;;
21814;SDS011;11069;48.988;8.450;2022-09-12T17:14:19;2.30;;;2.10;;